createdAt,value
2022-12-07T00:02:54.244Z,98419.02
2022-12-07T00:06:02.821Z,98416.12
2022-12-07T00:09:11.714Z,98412.86
2022-12-07T00:12:17.402Z,98414.53
2022-12-07T00:15:23.127Z,98413.77
2022-12-07T00:18:28.808Z,98412.98
2022-12-07T00:21:35.887Z,98413.27
2022-12-07T00:24:41.544Z,98416.19
2022-12-07T00:27:47.120Z,98417.12
2022-12-07T00:30:52.750Z,98418.15
2022-12-07T00:33:59.320Z,98418.83
2022-12-07T00:37:04.915Z,98419.13
2022-12-07T00:40:12.356Z,98418.73
2022-12-07T00:43:17.916Z,98416.61
2022-12-07T00:46:24.760Z,98420.98
2022-12-07T00:49:30.368Z,98416.05
2022-12-07T00:52:35.913Z,98417.10
2022-12-07T00:55:41.715Z,98415.86
2022-12-07T00:58:51.283Z,98419.91
2022-12-07T01:01:56.954Z,98413.88
2022-12-07T01:05:02.703Z,98416.84
2022-12-07T01:08:09.253Z,98408.80
2022-12-07T01:11:17.177Z,98406.35
2022-12-07T01:14:22.826Z,98401.83
2022-12-07T01:17:28.477Z,98403.13
2022-12-07T01:20:34.043Z,98407.02
2022-12-07T01:23:40.498Z,98403.48
2022-12-07T01:26:46.053Z,98400.15
2022-12-07T01:29:53.031Z,98400.18
2022-12-07T01:32:58.589Z,98396.84
2022-12-07T01:36:16.693Z,98390.89
2022-12-07T01:39:22.684Z,98389.79
2022-12-07T01:42:28.279Z,98388.71
2022-12-07T01:45:43.023Z,98384.36
2022-12-07T01:48:48.674Z,98388.56
2022-12-07T01:51:59.315Z,98386.36
2022-12-07T01:55:09.888Z,98381.70
2022-12-07T01:58:16.916Z,98383.34
2022-12-07T02:01:23.039Z,98383.80
2022-12-07T02:04:28.993Z,98389.86
2022-12-07T02:07:36.807Z,98385.31
2022-12-07T02:10:43.062Z,98384.08
2022-12-07T02:13:49.833Z,98379.32
2022-12-07T02:17:09.080Z,98383.68
2022-12-07T02:20:25.617Z,98381.47
2022-12-07T02:23:53.382Z,98379.39
2022-12-07T02:27:24.015Z,98378.27
2022-12-07T02:30:35.120Z,98377.41
2022-12-07T02:33:48.436Z,98379.96
2022-12-07T02:37:00.401Z,98379.05
2022-12-07T02:40:12.021Z,98376.95
2022-12-07T02:43:22.076Z,98376.83
2022-12-07T02:46:32.569Z,98375.52
2022-12-07T02:49:40.991Z,98377.41
2022-12-07T02:52:46.916Z,98371.63
2022-12-07T02:55:52.707Z,98371.59
2022-12-07T02:59:09.996Z,98369.92
2022-12-07T03:02:24.752Z,98367.90
2022-12-07T03:05:47.457Z,98365.47
2022-12-07T03:09:00.256Z,98360.10
2022-12-07T03:12:15.262Z,98358.27
2022-12-07T03:15:28.287Z,98357.41
2022-12-07T03:18:39.907Z,98357.10
2022-12-07T03:21:48.456Z,98358.52
2022-12-07T03:24:58.397Z,98353.67
2022-12-07T03:28:08.045Z,98349.29
2022-12-07T03:31:18.280Z,98347.60
2022-12-07T03:34:31.600Z,98349.41
2022-12-07T03:37:42.297Z,98344.83
2022-12-07T03:40:55.227Z,98345.77
2022-12-07T03:44:01.464Z,98343.04
2022-12-07T03:47:13.794Z,98340.00
2022-12-07T03:50:28.671Z,98337.65
2022-12-07T03:53:39.538Z,98337.86
2022-12-07T03:56:47.645Z,98337.77
2022-12-07T03:59:55.923Z,98335.27
2022-12-07T04:03:01.937Z,98334.56
2022-12-07T04:06:08.395Z,98331.17
2022-12-07T04:09:12.509Z,98331.42
2022-12-07T04:12:18.163Z,98333.56
2022-12-07T04:15:23.913Z,98330.90
2022-12-07T04:18:29.569Z,98328.55
2022-12-07T04:21:35.221Z,98327.95
2022-12-07T04:24:41.275Z,98325.13
2022-12-07T04:27:46.933Z,98323.92
2022-12-07T04:30:52.585Z,98326.59
2022-12-07T04:33:58.139Z,98323.29
2022-12-07T04:37:03.790Z,98325.61
2022-12-07T04:40:12.463Z,98326.25
2022-12-07T04:43:18.066Z,98322.86
2022-12-07T04:46:23.734Z,98322.02
2022-12-07T04:49:29.663Z,98324.94
2022-12-07T04:52:35.296Z,98325.11
2022-12-07T04:55:41.349Z,98320.89
2022-12-07T04:58:48.830Z,98319.71
2022-12-07T05:01:54.488Z,98315.83
2022-12-07T05:05:00.289Z,98315.50
2022-12-07T05:08:06.191Z,98316.51
2022-12-07T05:11:33.193Z,98313.06
2022-12-07T05:14:38.767Z,98319.00
2022-12-07T05:17:44.756Z,98315.02
2022-12-07T05:20:50.559Z,98318.75
2022-12-07T05:23:56.148Z,98322.95
2022-12-07T05:27:01.863Z,98324.80
2022-12-07T05:30:09.827Z,98326.63
2022-12-07T05:33:15.413Z,98324.27
2022-12-07T05:36:21.666Z,98323.83
2022-12-07T05:39:25.670Z,98323.16
2022-12-07T05:42:31.334Z,98324.12
2022-12-07T05:45:36.958Z,98327.04
2022-12-07T05:48:42.655Z,98331.20
2022-12-07T05:51:48.247Z,98330.89
2022-12-07T05:54:54.367Z,98332.93
2022-12-07T05:58:17.662Z,98338.09
2022-12-07T06:01:23.241Z,98342.01
2022-12-07T06:04:30.982Z,98344.27
2022-12-07T06:07:36.625Z,98341.88
2022-12-07T06:10:42.901Z,98340.72
2022-12-07T06:13:48.554Z,98341.33
2022-12-07T06:16:54.187Z,98344.27
2022-12-07T06:20:00.150Z,98343.53
2022-12-07T06:23:04.587Z,98339.77
2022-12-07T06:26:10.160Z,98341.98
2022-12-07T06:29:16.606Z,98340.54
2022-12-07T06:32:22.179Z,98340.90
2022-12-07T06:35:27.808Z,98344.90
2022-12-07T06:38:33.460Z,98347.89
2022-12-07T06:41:39.316Z,98343.50
2022-12-07T06:44:44.866Z,98347.24
2022-12-07T06:47:50.975Z,98348.55
2022-12-07T06:50:56.929Z,98349.74
2022-12-07T06:54:02.537Z,98354.42
2022-12-07T06:57:08.188Z,98355.98
2022-12-07T07:00:21.842Z,98355.21
2022-12-07T07:03:28.037Z,98358.60
2022-12-07T07:06:34.149Z,98361.05
2022-12-07T07:09:39.706Z,98359.90
2022-12-07T07:12:45.562Z,98362.60
2022-12-07T07:15:51.316Z,98361.73
2022-12-07T07:18:56.968Z,98362.73
2022-12-07T07:22:02.620Z,98363.94
2022-12-07T07:25:09.357Z,98365.82
2022-12-07T07:28:15.056Z,98367.48
2022-12-07T07:31:20.725Z,98365.50
2022-12-07T07:34:26.301Z,98367.42
2022-12-07T07:37:32.118Z,98368.70
2022-12-07T07:40:38.265Z,98368.35
2022-12-07T07:43:43.923Z,98370.36
2022-12-07T07:46:49.496Z,98372.17
2022-12-07T07:49:55.128Z,98368.40
2022-12-07T07:53:01.756Z,98367.79
2022-12-07T07:56:08.062Z,98369.20
2022-12-07T07:59:12.080Z,98369.58
2022-12-07T08:02:19.659Z,98372.59
2022-12-07T08:05:25.328Z,98374.67
2022-12-07T08:08:31.060Z,98375.33
2022-12-07T08:11:37.392Z,98374.38
2022-12-07T08:14:43.307Z,98376.40
2022-12-07T08:17:49.200Z,98377.57
2022-12-07T08:21:00.757Z,98385.43
2022-12-07T08:24:07.100Z,98390.82
2022-12-07T08:27:11.119Z,98389.96
2022-12-07T08:30:17.355Z,98394.67
2022-12-07T08:33:24.080Z,98392.05
2022-12-07T08:36:30.037Z,98391.34
2022-12-07T08:39:36.106Z,98396.02
2022-12-07T08:42:42.037Z,98400.33
2022-12-07T08:45:48.292Z,98403.02
2022-12-07T08:48:54.790Z,98406.92
2022-12-07T08:52:01.161Z,98408.79
2022-12-07T08:55:06.061Z,98411.73
2022-12-07T08:58:11.853Z,98410.03
2022-12-07T09:01:17.530Z,98414.07
2022-12-07T09:04:23.260Z,98414.60
2022-12-07T09:07:29.525Z,98410.61
2022-12-07T09:10:33.495Z,98409.23
2022-12-07T09:13:39.189Z,98412.30
2022-12-07T09:16:44.745Z,98410.92
2022-12-07T09:19:50.404Z,98411.95
2022-12-07T09:22:55.959Z,98410.28
2022-12-07T09:26:10.439Z,98411.27
2022-12-07T09:29:16.529Z,98414.15
2022-12-07T09:32:22.345Z,98412.92
2022-12-07T09:35:28.380Z,98410.95
2022-12-07T09:38:33.947Z,98407.26
2022-12-07T09:41:41.830Z,98402.83
2022-12-07T09:44:47.483Z,98398.38
2022-12-07T09:47:53.750Z,98399.66
2022-12-07T09:50:59.606Z,98392.23
2022-12-07T09:54:05.786Z,98388.20
2022-12-07T09:57:13.604Z,98388.59
2022-12-07T10:00:23.098Z,98391.80
2022-12-07T10:03:30.602Z,98395.52
2022-12-07T10:06:36.561Z,98398.23
2022-12-07T10:09:42.220Z,98395.56
2022-12-07T10:13:02.718Z,98396.61
2022-12-07T10:16:30.028Z,98396.53
2022-12-07T10:19:36.779Z,98393.07
2022-12-07T10:22:55.725Z,98391.11
2022-12-07T10:26:01.373Z,98388.25
2022-12-07T10:29:20.641Z,98383.21
2022-12-07T10:32:35.560Z,98380.65
2022-12-07T10:35:46.891Z,98377.85
2022-12-07T10:38:55.080Z,98379.20
2022-12-07T10:42:02.725Z,98379.03
2022-12-07T10:45:18.546Z,98377.55
2022-12-07T10:48:33.560Z,98378.48
2022-12-07T10:51:47.617Z,98375.85
2022-12-07T10:55:10.115Z,98372.91
2022-12-07T10:58:34.343Z,98365.42
2022-12-07T11:01:48.695Z,98359.04
2022-12-07T11:05:09.348Z,98356.05
2022-12-07T11:08:23.858Z,98354.23
2022-12-07T11:11:37.296Z,98347.06
2022-12-07T11:14:54.023Z,98345.61
2022-12-07T11:18:08.164Z,98346.61
2022-12-07T11:21:23.153Z,98345.10
2022-12-07T11:24:40.367Z,98345.10
2022-12-07T11:27:57.984Z,98339.02
2022-12-07T11:31:15.543Z,98338.34
2022-12-07T11:34:30.285Z,98339.54
2022-12-07T11:40:49.127Z,98331.40
2022-12-07T11:44:03.975Z,98324.61
2022-12-07T11:47:16.070Z,98325.27
2022-12-07T11:50:39.502Z,98328.61
2022-12-07T11:53:50.482Z,98327.90
2022-12-07T11:57:02.890Z,98326.80
2022-12-07T12:00:16.205Z,98322.39
2022-12-07T12:03:31.611Z,98319.04
2022-12-07T12:06:37.666Z,98320.28
2022-12-07T12:09:53.593Z,98319.67
2022-12-07T12:16:56.624Z,98324.77
2022-12-07T12:20:08.281Z,98323.59
2022-12-07T12:23:18.677Z,98324.18
2022-12-07T12:26:27.595Z,98320.89
2022-12-07T12:29:36.959Z,98322.31
2022-12-07T12:32:44.903Z,98320.73
2022-12-07T12:36:25.040Z,98316.06
2022-12-07T12:39:30.920Z,98307.45
2022-12-07T12:42:49.135Z,98300.19
2022-12-07T12:46:28.244Z,98294.63
2022-12-07T12:49:45.627Z,98295.05
2022-12-07T12:53:11.449Z,98294.27
2022-12-07T12:56:35.637Z,98296.21
2022-12-07T12:59:43.746Z,98298.30
2022-12-07T13:02:54.892Z,98295.73
2022-12-07T13:06:36.586Z,98295.24
2022-12-07T13:09:47.289Z,98304.02
2022-12-07T13:13:00.999Z,98303.29
2022-12-07T13:16:41.866Z,98304.52
2022-12-07T13:20:02.606Z,98304.90
2022-12-07T13:23:11.306Z,98301.16
2022-12-07T13:26:22.537Z,98296.64
2022-12-07T13:29:28.481Z,98296.90
2022-12-07T13:32:34.437Z,98297.59
2022-12-07T13:35:41.021Z,98303.79
2022-12-07T13:38:53.678Z,98312.70
2022-12-07T13:42:02.395Z,98319.46
2022-12-07T13:45:47.174Z,98317.84
2022-12-07T13:48:55.141Z,98314.19
2022-12-07T13:52:19.417Z,98316.45
2022-12-07T13:55:25.585Z,98317.85
2022-12-07T13:58:35.436Z,98321.27
2022-12-07T14:01:41.132Z,98321.94
2022-12-07T14:04:46.836Z,98321.00
2022-12-07T14:08:00.162Z,98320.32
2022-12-07T14:11:06.306Z,98319.93
2022-12-07T14:14:19.307Z,98321.84
2022-12-07T14:17:26.540Z,98319.40
2022-12-07T14:20:38.349Z,98325.80
2022-12-07T14:23:44.410Z,98328.59
2022-12-07T14:26:51.392Z,98327.83
2022-12-07T14:29:56.983Z,98323.67
2022-12-07T14:33:04.961Z,98324.92
2022-12-07T14:36:13.051Z,98325.03
2022-12-07T14:39:19.009Z,98323.98
2022-12-07T14:42:29.587Z,98324.10
2022-12-07T14:45:35.230Z,98325.41
2022-12-07T14:55:34.780Z,98339.63
2022-12-07T14:58:40.570Z,98345.02
2022-12-07T15:01:46.436Z,98344.98
2022-12-07T15:04:52.138Z,98346.21
2022-12-07T15:07:57.927Z,98348.55
2022-12-07T15:11:03.960Z,98353.52
2022-12-07T15:14:13.435Z,98349.37
2022-12-07T15:17:28.171Z,98347.64
2022-12-07T15:20:37.322Z,98347.40
2022-12-07T15:23:43.157Z,98350.63
2022-12-07T15:26:48.807Z,98348.55
2022-12-07T15:29:54.917Z,98340.45
2022-12-07T15:33:00.483Z,98331.63
2022-12-07T15:36:06.986Z,98320.69
2022-12-07T15:39:14.900Z,98318.39
2022-12-07T15:42:20.958Z,98325.79
2022-12-07T15:45:26.613Z,98336.00
2022-12-07T15:48:32.262Z,98339.15
2022-12-07T15:51:38.053Z,98347.14
2022-12-07T15:54:43.798Z,98351.27
2022-12-07T15:57:50.495Z,98354.77
2022-12-07T16:00:56.201Z,98354.83
2022-12-07T16:04:02.059Z,98353.58
2022-12-07T16:07:07.810Z,98354.71
2022-12-07T16:10:14.078Z,98360.62
2022-12-07T16:13:19.421Z,98360.66
2022-12-07T16:16:25.608Z,98367.80
2022-12-07T16:19:29.805Z,98374.55
2022-12-07T16:22:35.379Z,98376.80
2022-12-07T16:25:41.005Z,98377.11
2022-12-07T16:28:46.996Z,98381.85
2022-12-07T16:31:53.505Z,98383.09
2022-12-07T16:34:59.086Z,98381.95
2022-12-07T16:38:04.635Z,98379.53
2022-12-07T16:41:11.173Z,98380.56
2022-12-07T16:44:16.860Z,98381.06
2022-12-07T16:47:22.513Z,98380.77
2022-12-07T16:50:28.164Z,98383.23
2022-12-07T16:53:33.788Z,98382.80
2022-12-07T16:56:39.384Z,98384.14
2022-12-07T16:59:44.937Z,98384.25
2022-12-07T17:02:50.491Z,98382.56
2022-12-07T17:05:56.114Z,98383.16
2022-12-07T17:09:01.769Z,98381.31
2022-12-07T17:12:08.852Z,98382.89
2022-12-07T17:15:22.110Z,98385.08
2022-12-07T17:18:28.451Z,98382.44
2022-12-07T17:21:32.565Z,98379.39
2022-12-07T17:24:38.181Z,98378.80
2022-12-07T17:27:44.591Z,98379.50
2022-12-07T17:30:48.900Z,98382.19
2022-12-07T17:33:54.493Z,98382.34
2022-12-07T17:37:00.088Z,98379.06
2022-12-07T17:40:07.091Z,98388.64
2022-12-07T17:43:12.686Z,98389.28
2022-12-07T17:46:18.286Z,98391.66
2022-12-07T17:49:24.453Z,98394.47
2022-12-07T17:52:53.203Z,98397.80
2022-12-07T17:59:25.437Z,98409.64
2022-12-07T18:02:31.095Z,98410.77
2022-12-07T18:05:37.231Z,98412.57
2022-12-07T18:08:42.910Z,98408.34
2022-12-07T18:11:48.562Z,98404.89
2022-12-07T18:14:55.063Z,98405.30
2022-12-07T18:18:00.685Z,98406.48
2022-12-07T18:21:09.203Z,98400.05
2022-12-07T18:24:17.107Z,98398.31
2022-12-07T18:27:22.760Z,98394.28
2022-12-07T18:30:51.222Z,98395.48
2022-12-07T18:33:56.273Z,98401.46
2022-12-07T18:37:01.910Z,98402.16
2022-12-07T18:40:09.900Z,98400.05
2022-12-07T18:43:16.216Z,98394.63
2022-12-07T18:46:21.257Z,98401.62
2022-12-07T18:49:26.995Z,98401.41
2022-12-07T18:52:34.085Z,98400.16
2022-12-07T18:55:40.448Z,98398.66
2022-12-07T18:59:04.946Z,98400.08
2022-12-07T19:02:12.178Z,98397.28
2022-12-07T19:05:18.395Z,98396.95
2022-12-07T19:08:24.505Z,98398.93
2022-12-07T19:11:50.810Z,98398.16
2022-12-07T19:14:57.106Z,98395.13
2022-12-07T19:18:02.823Z,98395.52
2022-12-07T19:21:09.297Z,98390.26
2022-12-07T19:24:19.716Z,98392.77
2022-12-07T19:27:30.429Z,98395.88
2022-12-07T19:30:36.028Z,98399.33
2022-12-07T19:33:42.208Z,98400.07
2022-12-07T19:36:49.223Z,98404.95
2022-12-07T19:39:54.793Z,98403.20
2022-12-07T19:43:00.422Z,98405.98
2022-12-07T19:46:10.099Z,98412.06
2022-12-07T19:49:16.452Z,98417.95
2022-12-07T19:52:20.543Z,98417.55
2022-12-07T19:55:26.095Z,98414.44
2022-12-07T19:58:31.753Z,98410.15
2022-12-07T20:01:40.707Z,98403.40
2022-12-07T20:04:47.162Z,98403.56
2022-12-07T20:07:51.328Z,98408.00
2022-12-07T20:10:59.657Z,98414.27
2022-12-07T20:14:06.569Z,98412.75
2022-12-07T20:17:12.288Z,98412.41
2022-12-07T20:20:18.484Z,98414.77
2022-12-07T20:23:24.238Z,98415.67
2022-12-07T20:26:29.993Z,98411.35
2022-12-07T20:29:35.747Z,98409.52
2022-12-07T20:32:41.810Z,98409.77
2022-12-07T20:35:47.665Z,98412.94
2022-12-07T20:38:53.829Z,98412.93
2022-12-07T20:42:17.396Z,98416.27
2022-12-07T20:45:23.258Z,98423.32
2022-12-07T20:48:29.312Z,98426.34
2022-12-07T20:51:34.974Z,98428.02
2022-12-07T20:54:40.525Z,98427.54
2022-12-07T20:57:46.171Z,98430.48
2022-12-07T21:00:51.823Z,98432.20
2022-12-07T21:03:59.211Z,98431.82
2022-12-07T21:07:04.868Z,98427.38
2022-12-07T21:10:11.815Z,98421.19
2022-12-07T21:13:17.604Z,98421.64
2022-12-07T21:16:25.220Z,98422.71
2022-12-07T21:19:30.896Z,98423.71
2022-12-07T21:22:37.630Z,98427.78
2022-12-07T21:25:43.488Z,98429.68
2022-12-07T21:28:49.758Z,98430.52
2022-12-07T21:31:53.815Z,98429.27
2022-12-07T21:34:59.521Z,98426.13
2022-12-07T21:38:05.363Z,98425.39
2022-12-07T21:41:22.463Z,98420.95
2022-12-07T21:44:28.156Z,98419.91
2022-12-07T21:47:35.337Z,98420.08
2022-12-07T21:50:40.899Z,98418.85
2022-12-07T21:53:46.643Z,98414.23
2022-12-07T21:56:52.306Z,98415.59
2022-12-07T21:59:57.875Z,98418.79
2022-12-07T22:03:03.645Z,98422.74
2022-12-07T22:06:10.682Z,98423.17
2022-12-07T22:09:16.539Z,98419.19
2022-12-07T22:12:22.108Z,98423.60
2022-12-07T22:15:29.269Z,98428.83
2022-12-07T22:18:35.031Z,98432.63
2022-12-07T22:21:41.296Z,98427.48
2022-12-07T22:24:45.685Z,98429.45
2022-12-07T22:27:51.247Z,98430.06
2022-12-07T22:31:02.872Z,98432.09
2022-12-07T22:34:08.615Z,98433.02
2022-12-07T22:37:14.677Z,98432.69
2022-12-07T22:40:20.305Z,98431.80
2022-12-07T22:43:25.900Z,98434.71
2022-12-07T22:46:31.521Z,98433.23
2022-12-07T22:49:37.691Z,98432.15
2022-12-07T22:52:43.347Z,98435.41
2022-12-07T22:55:49.303Z,98434.20
2022-12-07T22:58:55.125Z,98438.05
2022-12-07T23:02:00.812Z,98435.55
2022-12-07T23:05:07.135Z,98431.96
2022-12-07T23:08:11.456Z,98432.96
2022-12-07T23:11:38.764Z,98428.15
2022-12-07T23:14:44.443Z,98427.45
2022-12-07T23:17:50.061Z,98433.40
2022-12-07T23:20:58.764Z,98436.47
2022-12-07T23:24:05.151Z,98437.11
2022-12-07T23:27:09.270Z,98436.89
2022-12-07T23:30:15.651Z,98437.39
2022-12-07T23:33:19.753Z,98436.21
2022-12-07T23:36:26.935Z,98442.63
2022-12-07T23:39:32.592Z,98442.31
2022-12-07T23:42:38.246Z,98444.38
2022-12-07T23:45:48.221Z,98442.49
2022-12-07T23:48:55.473Z,98442.17
2022-12-07T23:52:01.100Z,98435.93
2022-12-07T23:55:08.018Z,98430.94
2022-12-07T23:58:13.631Z,98437.19
